Time;durP1;ratioP1;P1;durP2;ratioP2;P2;SDS_P1;SDS_P2;PMS_P1;PMS_P2;Temp;Humidity;BMP_temperature;BMP_pressure;BME280_temperature;BME280_humidity;BME280_pressure;Samples;Min_cycle;Max_cycle;Signal;HPM_P1;HPM_P2
2021/11/12 00:02:39;;;;;;;20.93;15.23;;;;;;;6.57;80.89;96081.94;5028569;28;20258;-84
2021/11/12 00:13:21;;;;;;;15.50;13.77;;;;;;;6.47;80.64;96089.66;5091792;28;20207;-84
2021/11/12 00:15:51;;;;;;;19.33;15.77;;;;;;;6.35;81.10;96079.75;5083204;28;20691;-84
2021/11/12 00:18:19;;;;;;;35.00;17.13;;;;;;;6.27;81.78;96077.06;5076455;28;20196;-82
2021/11/12 00:20:47;;;;;;;20.97;15.80;;;;;;;6.16;82.82;96083.91;5087129;28;20702;-84
2021/11/12 00:23:14;;;;;;;21.80;15.60;;;;;;;6.16;82.40;96085.66;5078396;28;20203;-82
2021/11/12 00:25:43;;;;;;;18.57;15.67;;;;;;;6.12;82.26;96069.00;5095496;28;20188;-83
2021/11/12 00:28:11;;;;;;;21.70;15.10;;;;;;;6.10;83.13;96073.44;5091909;28;20559;-82
2021/11/12 00:30:50;;;;;;;16.97;14.97;;;;;;;6.10;82.81;96078.56;5081889;28;20220;-82
2021/11/12 00:33:31;;;;;;;21.33;14.93;;;;;;;6.01;83.44;96077.63;5091915;28;20251;-83
2021/11/12 00:36:04;;;;;;;17.57;14.50;;;;;;;6.05;83.12;96078.97;5075498;28;20226;-82
2021/11/12 00:38:35;;;;;;;16.50;14.70;;;;;;;6.25;82.15;96074.63;5076235;28;20200;-83
2021/11/12 00:41:16;;;;;;;15.70;14.00;;;;;;;6.40;81.46;96069.88;5084886;28;20254;-84
2021/11/12 00:43:45;;;;;;;15.50;13.90;;;;;;;6.32;81.19;96072.34;5086947;28;20207;-82
2021/11/12 00:46:16;;;;;;;15.50;13.90;;;;;;;6.28;80.96;96071.00;5074578;28;20305;-84
2021/11/12 00:48:46;;;;;;;16.13;14.37;;;;;;;6.30;81.03;96062.25;5081675;28;20245;-83
2021/11/12 00:51:21;;;;;;;15.53;13.50;;;;;;;6.41;80.58;96064.63;5076718;28;20279;-83
2021/11/12 00:53:53;;;;;;;15.77;13.83;;;;;;;6.36;80.16;96064.22;5069642;28;20249;-84
2021/11/12 00:56:24;;;;;;;21.33;13.63;;;;;;;6.13;80.30;96070.63;5093370;28;20270;-85
2021/11/12 00:58:52;;;;;;;20.00;14.07;;;;;;;5.99;80.71;96066.72;5083384;28;20687;-84
2021/11/12 01:01:19;;;;;;;19.30;12.77;;;;;;;5.92;81.23;96073.34;5085619;28;20663;-82
2021/11/12 01:03:47;;;;;;;15.10;13.43;;;;;;;5.83;82.02;96074.09;5074837;28;20204;-83
2021/11/12 01:06:14;;;;;;;14.07;12.53;;;;;;;5.91;81.56;96074.28;5075527;28;20192;-83
2021/11/12 01:08:40;;;;;;;13.60;12.30;;;;;;;6.03;81.03;96072.38;5084160;28;20659;-85
2021/11/12 01:11:07;;;;;;;13.97;12.67;;;;;;;6.15;80.73;96071.31;5094320;28;20220;-84
2021/11/12 01:13:35;;;;;;;27.67;13.50;;;;;;;6.13;80.09;96062.97;5094159;28;20200;-86
2021/11/12 01:16:03;;;;;;;15.73;13.60;;;;;;;6.10;80.81;96060.66;5085830;28;20224;-83
2021/11/12 01:18:34;;;;;;;15.77;14.07;;;;;;;6.03;80.73;96057.84;5082078;28;20279;-84
2021/11/12 01:21:00;;;;;;;19.10;13.77;;;;;;;5.82;81.93;96068.19;5094747;28;20216;-84
2021/11/12 01:23:27;;;;;;;24.30;14.70;;;;;;;5.78;82.57;96061.72;5084906;28;20203;-84
2021/11/12 01:25:54;;;;;;;16.77;14.97;;;;;;;5.86;81.75;96061.06;5094483;28;20200;-85
2021/11/12 01:28:21;;;;;;;16.60;14.80;;;;;;;5.95;81.52;96064.59;5087174;28;20192;-84
2021/11/12 01:30:48;;;;;;;15.93;14.30;;;;;;;5.95;80.86;96055.19;5073231;28;20603;-85
2021/11/12 01:33:15;;;;;;;17.07;15.27;;;;;;;5.85;81.41;96056.91;5077909;28;20196;-85
2021/11/12 01:35:42;;;;;;;25.63;14.80;;;;;;;5.76;81.73;96060.28;5073605;28;20201;-84
2021/11/12 01:38:09;;;;;;;17.57;14.60;;;;;;;5.79;81.92;96059.97;5074734;28;20207;-85
2021/11/12 01:40:36;;;;;;;14.73;13.23;;;;;;;5.83;81.21;96057.03;5073692;28;20221;-85
2021/11/12 01:43:08;;;;;;;16.53;14.37;;;;;;;5.81;81.58;96047.88;5074945;28;20201;-85
2021/11/12 01:45:50;;;;;;;34.87;14.07;;;;;;;5.67;81.98;96059.31;5074141;28;20197;-84
2021/11/12 01:48:27;;;;;;;17.93;13.40;;;;;;;5.58;82.48;96057.56;5079307;28;20287;-82
2021/11/12 01:51:00;;;;;;;18.63;14.30;;;;;;;5.48;83.40;96054.22;5093564;28;20277;-83
2021/11/12 01:53:30;;;;;;;20.50;14.20;;;;;;;5.51;83.07;96056.50;5086884;28;20224;-83
2021/11/12 01:59:07;;;;;;;14.87;13.20;;;;;;;5.43;84.18;96046.94;5010923;28;20573;-85
2021/11/12 02:01:36;;;;;;;15.83;14.13;;;;;;;5.59;83.18;96048.97;5064900;28;20614;-85
2021/11/12 02:04:06;;;;;;;14.63;13.13;;;;;;;5.77;82.03;96042.22;5073351;28;20207;-85
2021/11/12 02:06:33;;;;;;;15.67;13.70;;;;;;;5.73;81.90;96030.69;5074842;28;20196;-85
2021/11/12 02:09:01;;;;;;;19.17;14.73;;;;;;;5.70;81.81;96030.97;5090253;28;20195;-84
2021/11/12 02:11:28;;;;;;;19.03;14.60;;;;;;;5.71;81.84;96021.53;5093194;28;20230;-85
2021/11/12 02:13:56;;;;;;;15.70;13.67;;;;;;;5.74;81.82;96024.66;5062794;28;20603;-85
2021/11/12 02:16:27;;;;;;;21.53;14.43;;;;;;;5.73;81.44;96029.88;5053277;28;20279;-85
2021/11/12 02:18:54;;;;;;;14.73;13.20;;;;;;;5.80;81.68;96025.81;5074269;28;20205;-85
2021/11/12 02:21:27;;;;;;;15.00;13.40;;;;;;;5.81;81.73;96025.69;5073261;28;20308;-85
2021/11/12 02:23:59;;;;;;;15.93;14.33;;;;;;;5.80;81.23;96016.41;5092007;28;20200;-85
2021/11/12 02:26:30;;;;;;;16.50;14.57;;;;;;;5.75;81.74;96020.34;5091353;28;20659;-82
2021/11/12 02:28:58;;;;;;;18.83;14.90;;;;;;;5.68;82.04;96014.16;5072926;28;20268;-85
2021/11/12 02:31:26;;;;;;;18.33;15.20;;;;;;;5.67;82.64;96004.88;5073722;28;20221;-84
2021/11/12 02:33:55;;;;;;;19.90;14.43;;;;;;;5.69;82.97;96003.00;5059100;28;20193;-85
2021/11/12 02:36:23;;;;;;;17.20;14.67;;;;;;;5.82;81.75;96001.75;5091658;28;20224;-84
2021/11/12 02:38:52;;;;;;;16.87;14.27;;;;;;;5.87;81.40;95991.94;5072780;28;20200;-82
2021/11/12 02:41:19;;;;;;;16.13;14.27;;;;;;;5.93;81.41;95985.50;5072647;28;20278;-84
2021/11/12 02:43:48;;;;;;;21.47;15.50;;;;;;;5.83;81.85;95979.56;5062451;28;20205;-84
2021/11/12 02:46:16;;;;;;;18.23;15.60;;;;;;;5.80;82.70;95978.09;5072714;28;20197;-82
2021/11/12 02:48:44;;;;;;;21.13;14.83;;;;;;;5.80;83.33;95974.72;5057125;28;20216;-83
2021/11/12 02:51:16;;;;;;;17.30;15.50;;;;;;;5.81;83.19;95977.16;5092826;28;20232;-83
2021/11/12 02:53:45;;;;;;;18.40;15.53;;;;;;;5.84;83.84;95979.44;5072847;28;20221;-83
2021/11/12 02:56:14;;;;;;;19.27;16.60;;;;;;;5.90;83.32;95980.66;5088763;28;20193;-82
2021/11/12 02:58:41;;;;;;;23.80;15.47;;;;;;;5.97;83.27;95975.78;5093446;28;20633;-84
2021/11/12 03:01:08;;;;;;;17.73;15.10;;;;;;;6.01;82.90;95982.25;5075667;28;20220;-84
2021/11/12 03:03:35;;;;;;;24.10;15.20;;;;;;;5.89;83.61;95979.06;5078782;28;20203;-83
2021/11/12 03:06:02;;;;;;;16.47;14.67;;;;;;;6.00;83.12;95980.63;5091025;28;20211;-84
2021/11/12 03:08:28;;;;;;;53.20;16.20;;;;;;;5.86;83.21;95977.53;5061031;28;20232;-83
2021/11/12 03:10:56;;;;;;;16.50;14.80;;;;;;;6.00;82.76;95973.78;5053625;28;20236;-84
2021/11/12 03:13:23;;;;;;;17.30;14.57;;;;;;;6.03;82.72;95968.38;5087247;28;20660;-85
2021/11/12 03:15:50;;;;;;;15.97;14.27;;;;;;;6.13;82.53;95971.72;5072398;28;20200;-85
2021/11/12 03:18:20;;;;;;;18.23;13.80;;;;;;;6.15;81.88;95971.59;5067777;22;20248;-82
2021/11/12 03:20:51;;;;;;;15.60;14.00;;;;;;;6.11;82.17;95970.25;5032682;28;20194;-82
2021/11/12 03:23:24;;;;;;;24.87;14.07;;;;;;;6.08;81.94;95973.91;5032842;28;20194;-82
2021/11/12 03:26:04;;;;;;;18.23;12.90;;;;;;;6.19;81.42;95978.03;5032806;28;20202;-81
2021/11/12 03:28:49;;;;;;;13.50;12.10;;;;;;;6.21;81.21;95976.94;5031470;28;20230;-81
2021/11/12 04:02:11;;;;;;;10.13;9.23;;;;;;;5.91;79.80;95963.59;5036065;28;20204;-82
2021/11/12 04:05:07;;;;;;;9.70;8.70;;;;;;;5.95;79.50;95965.75;5035722;28;20688;-81
2021/11/12 04:19:24;;;;;;;50.80;10.70;;;;;;;5.60;80.22;95958.63;5035789;28;20280;-82
2021/11/12 04:49:35;;;;;;;10.37;9.37;;;;;;;5.57;81.63;95964.03;5034310;28;20238;-81
2021/11/12 05:12:24;;;;;;;9.00;8.10;;;;;;;6.02;100.00;95956.56;5033796;28;20205;-80
2021/11/12 05:45:20;;;;;;;14.77;8.53;;;;;;;5.65;80.59;95953.91;5010548;28;20218;-79
2021/11/12 05:50:45;;;;;;;7.93;7.23;;;;;;;6.30;85.03;95961.72;5011712;28;20218;-80
2021/11/12 05:55:56;;;;;;;8.97;8.17;;;;;;;6.27;77.91;95955.13;5012873;28;20681;-80
2021/11/12 05:58:26;;;;;;;9.03;8.13;;;;;;;6.17;77.41;95954.34;5012297;28;20241;-80
2021/11/12 06:00:52;;;;;;;9.17;8.37;;;;;;;6.05;77.89;95956.28;5012796;28;20205;-80
2021/11/12 06:03:19;;;;;;;8.67;7.87;;;;;;;6.01;77.94;95954.94;5013291;28;20209;-80
2021/11/12 06:05:45;;;;;;;9.10;8.20;;;;;;;5.99;78.06;95961.94;5013205;28;20206;-80
2021/11/12 06:08:12;;;;;;;8.60;7.80;;;;;;;5.97;78.44;95955.34;5012895;28;20233;-80
2021/11/12 06:10:39;;;;;;;9.23;8.43;;;;;;;6.01;78.30;95956.69;5013100;28;20237;-79
2021/11/12 06:13:05;;;;;;;8.13;7.43;;;;;;;6.00;78.20;95957.63;5012732;28;20199;-79
2021/11/12 06:15:34;;;;;;;9.00;8.13;;;;;;;6.03;77.78;95962.47;5013060;28;20203;-80
2021/11/12 06:18:01;;;;;;;9.53;8.53;;;;;;;5.91;78.07;95951.63;5013020;28;20297;-83
2021/11/12 06:20:28;;;;;;;10.03;9.03;;;;;;;5.68;79.34;95956.19;5013540;28;20667;-80
2021/11/12 06:22:54;;;;;;;18.70;9.87;;;;;;;5.35;81.33;95957.47;5014384;28;20219;-83
2021/11/12 06:25:21;;;;;;;15.27;9.60;;;;;;;5.20;83.46;95954.47;5013011;28;20210;-84
2021/11/12 06:27:48;;;;;;;11.73;9.53;;;;;;;5.08;83.22;95954.75;5011730;28;20278;-84
2021/11/12 06:30:15;;;;;;;9.97;9.00;;;;;;;5.21;84.08;95945.88;5008063;28;20249;-84
2021/11/12 06:32:42;;;;;;;9.60;8.70;;;;;;;5.26;84.32;95945.47;5013039;28;20309;-83
2021/11/12 06:35:09;;;;;;;14.97;9.13;;;;;;;5.37;90.94;95949.66;5013108;28;20199;-82
2021/11/12 06:37:35;;;;;;;10.00;8.90;;;;;;;5.44;87.07;95946.41;5013091;28;20507;-83
2021/11/12 06:40:02;;;;;;;11.60;9.13;;;;;;;5.40;85.52;95945.06;5014920;28;20215;-82
2021/11/12 06:42:35;;;;;;;10.50;9.40;;;;;;;5.12;83.63;95954.34;5014945;28;20667;-84
2021/11/12 06:50:34;;;;;;;10.30;9.30;;;;;;;5.32;83.22;95951.81;5013454;28;20682;-80
2021/11/12 06:53:17;;;;;;;9.73;8.83;;;;;;;5.24;83.57;95944.81;5012904;28;20233;-82
2021/11/12 06:55:43;;;;;;;68.20;50.77;;;;;;;5.26;83.38;95948.03;5013299;28;20203;-85
2021/11/12 06:58:11;;;;;;;14.80;11.43;;;;;;;5.16;82.85;95950.59;5012960;28;20229;-81
2021/11/12 07:00:37;;;;;;;11.87;10.27;;;;;;;5.19;82.57;95952.09;5013063;28;20199;-83
2021/11/12 07:03:05;;;;;;;9.97;9.07;;;;;;;5.29;82.09;95955.44;5012801;28;20206;-83
2021/11/12 07:05:32;;;;;;;10.63;9.53;;;;;;;5.25;81.71;95953.28;5012961;28;20203;-83
2021/11/12 07:07:58;;;;;;;11.13;9.20;;;;;;;5.21;81.66;95958.66;5017269;28;20195;-83
2021/11/12 07:10:25;;;;;;;10.00;9.00;;;;;;;5.17;81.90;95949.66;5011413;28;20195;-83
2021/11/12 07:12:52;;;;;;;9.67;8.77;;;;;;;5.35;81.26;95949.00;5013706;28;20210;-82
2021/11/12 07:15:19;;;;;;;10.20;9.23;;;;;;;5.44;80.53;95943.06;5012956;28;20199;-83
2021/11/12 07:17:47;;;;;;;9.67;8.70;;;;;;;5.53;80.13;95943.06;5013443;28;20226;-81
2021/11/12 07:20:16;;;;;;;10.37;8.67;;;;;;;5.65;79.68;95942.91;5013235;28;20218;-83
2021/11/12 07:22:42;;;;;;;10.47;8.50;;;;;;;5.59;79.20;95948.53;5013323;28;20199;-80
2021/11/12 07:25:10;;;;;;;12.00;9.27;;;;;;;5.34;80.08;95957.59;5012727;28;20212;-80
2021/11/12 07:27:37;;;;;;;11.17;8.63;;;;;;;5.03;81.96;95964.53;4996583;28;20222;-81
2021/11/12 07:30:07;;;;;;;10.47;9.43;;;;;;;4.84;83.77;95960.22;5013458;28;20305;-80
2021/11/12 07:32:33;;;;;;;12.13;9.33;;;;;;;4.88;84.03;95964.13;5014563;28;20209;-80
2021/11/12 07:35:01;;;;;;;12.63;9.80;;;;;;;4.90;84.60;95967.34;5014211;28;20685;-81
2021/11/12 07:37:30;;;;;;;12.60;9.67;;;;;;;4.94;84.21;95962.81;5013475;28;20225;-81
2021/11/12 07:39:58;;;;;;;11.10;10.00;;;;;;;5.17;83.42;95970.09;5014414;28;20626;-79
2021/11/12 07:42:30;;;;;;;10.13;8.97;;;;;;;5.21;83.07;95961.19;5015009;28;20205;-80
2021/11/12 07:45:09;;;;;;;19.40;16.50;;;;;;;5.10;83.64;95958.78;5019082;28;20586;-80
2021/11/12 07:47:37;;;;;;;42.33;32.67;;;;;;;5.26;82.64;95958.25;5012333;28;20618;-79
2021/11/12 07:50:08;;;;;;;12.00;10.80;;;;;;;5.31;81.84;95955.31;5012124;28;20219;-79
2021/11/12 07:52:38;;;;;;;9.97;8.73;;;;;;;5.31;83.27;95953.56;5012029;28;20718;-79
2021/11/12 07:55:06;;;;;;;10.77;9.67;;;;;;;5.23;83.64;95943.19;5012973;28;20268;-79
2021/11/12 07:57:32;;;;;;;10.20;9.20;;;;;;;5.30;82.17;95940.91;5012236;28;20214;-81
2021/11/12 07:59:59;;;;;;;10.23;9.23;;;;;;;5.25;82.82;95943.06;5012702;28;20310;-81
2021/11/12 08:02:26;;;;;;;14.63;9.30;;;;;;;5.25;82.41;95943.06;5012423;28;20203;-82
2021/11/12 08:04:59;;;;;;;10.70;9.57;;;;;;;5.30;82.65;95946.84;5012715;28;20790;-81
2021/11/12 08:07:27;;;;;;;11.53;9.30;;;;;;;5.34;82.38;95943.06;5012894;28;20199;-79
2021/11/12 08:09:58;;;;;;;10.13;9.07;;;;;;;5.53;81.71;95943.06;5012964;28;20326;-79
2021/11/12 08:12:26;;;;;;;11.63;8.83;;;;;;;5.65;80.80;95946.25;5012695;28;20209;-80
2021/11/12 08:15:13;;;;;;;10.20;9.20;;;;;;;5.63;80.57;95940.47;5012613;28;20202;-81
2021/11/12 08:17:45;;;;;;;10.07;8.93;;;;;;;5.68;80.45;95945.97;5012130;28;20695;-79
2021/11/12 08:20:19;;;;;;;11.30;9.77;;;;;;;5.63;80.79;95942.22;5012412;28;20662;-81
2021/11/12 08:22:51;;;;;;;13.13;9.30;;;;;;;5.68;80.97;95942.63;5012138;28;20269;-80
2021/11/12 08:25:23;;;;;;;11.47;9.30;;;;;;;5.77;80.14;95937.47;5012060;28;20625;-80
2021/11/12 08:28:03;;;;;;;10.10;9.10;;;;;;;5.81;80.16;95938.81;5011826;28;20210;-79
2021/11/12 08:33:26;;;;;;;9.87;8.87;;;;;;;5.78;81.32;95928.88;5012641;28;20249;-79
2021/11/12 08:36:04;;;;;;;10.80;9.53;;;;;;;5.83;80.79;95919.06;5011950;28;20225;-80
2021/11/12 08:38:38;;;;;;;11.10;9.23;;;;;;;5.89;80.08;95925.41;5012449;28;20234;-81
2021/11/12 08:41:10;;;;;;;9.43;8.37;;;;;;;6.01;79.15;95921.72;5015588;28;20235;-80
2021/11/12 08:43:39;;;;;;;10.20;9.20;;;;;;;6.01;79.28;95933.69;5015689;28;20309;-78
2021/11/12 08:49:01;;;;;;;10.13;8.50;;;;;;;6.12;79.45;95923.31;5015218;28;20776;-81
2021/11/12 08:51:33;;;;;;;9.27;8.13;;;;;;;6.23;78.85;95918.81;5015194;28;20203;-81
2021/11/12 08:54:01;;;;;;;9.33;7.97;;;;;;;6.21;78.04;95917.31;5014790;28;20203;-81
2021/11/12 08:56:29;;;;;;;8.90;8.00;;;;;;;6.20;78.07;95918.28;5015387;28;20203;-81
2021/11/12 08:58:56;;;;;;;9.67;8.67;;;;;;;5.97;78.15;95906.78;5014954;28;20238;-81
2021/11/12 09:01:23;;;;;;;11.03;9.17;;;;;;;5.72;79.97;95903.09;5014818;28;20286;-81
2021/11/12 09:03:52;;;;;;;9.30;8.33;;;;;;;5.60;80.82;95906.72;4995563;28;20191;-81
2021/11/12 09:06:19;;;;;;;10.97;8.57;;;;;;;5.67;81.03;95907.81;4995440;28;20200;-81
2021/11/12 09:08:46;;;;;;;9.93;8.40;;;;;;;5.69;80.70;95911.03;4995036;28;20227;-81
2021/11/12 09:11:13;;;;;;;9.30;8.30;;;;;;;5.79;80.15;95910.03;4995375;28;20203;-81
2021/11/12 09:13:45;;;;;;;9.27;8.37;;;;;;;5.97;80.06;95902.47;5003416;28;20202;-81
2021/11/12 09:16:13;;;;;;;9.40;8.50;;;;;;;5.93;79.66;95900.38;5014441;28;20293;-81
2021/11/12 09:18:40;;;;;;;9.07;8.10;;;;;;;6.06;79.48;95896.53;5014807;28;20231;-81
2021/11/12 09:21:07;;;;;;;10.17;8.10;;;;;;;6.08;79.77;95896.41;5015149;28;20211;-82
2021/11/12 09:23:34;;;;;;;9.63;8.37;;;;;;;5.98;79.71;95898.19;5016210;28;20203;-82
2021/11/12 09:26:01;;;;;;;8.03;7.33;;;;;;;6.14;79.11;95898.41;5015861;28;20209;-82
2021/11/12 09:28:28;;;;;;;8.93;8.03;;;;;;;6.07;78.39;95897.34;5015139;28;20223;-81
2021/11/12 09:30:56;;;;;;;8.23;7.37;;;;;;;6.03;78.78;95890.91;5015803;28;20207;-81
2021/11/12 09:33:22;;;;;;;9.00;7.70;;;;;;;6.01;78.01;95892.78;5015497;28;20202;-81
2021/11/12 09:35:49;;;;;;;8.70;7.87;;;;;;;6.02;78.72;95886.75;5016129;28;20871;-81
2021/11/12 09:38:16;;;;;;;8.53;7.73;;;;;;;6.15;78.08;95884.69;5016427;28;20254;-81
2021/11/12 09:40:42;;;;;;;8.03;7.23;;;;;;;6.34;79.42;95888.91;5016408;28;20203;-81
2021/11/12 09:43:09;;;;;;;7.90;7.17;;;;;;;6.56;79.00;95888.47;5015476;28;20210;-79
2021/11/12 09:45:35;;;;;;;7.60;6.90;;;;;;;6.44;77.73;95884.53;5014673;28;20206;-81
2021/11/12 09:48:04;;;;;;;8.50;7.60;;;;;;;6.38;77.43;95888.44;5014700;28;20775;-81
2021/11/12 09:50:32;;;;;;;8.70;7.73;;;;;;;6.44;77.26;95880.22;5014574;28;20199;-79
2021/11/12 09:53:00;;;;;;;8.20;7.40;;;;;;;6.31;77.07;95876.38;5013527;28;20230;-80
2021/11/12 09:55:28;;;;;;;10.30;8.30;;;;;;;6.01;78.36;95875.72;5014629;28;20210;-80
2021/11/12 09:57:55;;;;;;;24.83;20.37;;;;;;;6.14;78.74;95883.88;5014031;28;20206;-81
2021/11/12 10:00:24;;;;;;;16.73;14.33;;;;;;;6.32;78.01;95881.38;5014431;28;20209;-82
2021/11/12 10:02:52;;;;;;;11.57;9.30;;;;;;;6.36;77.54;95875.00;5014505;28;20237;-81
2021/11/12 10:05:35;;;;;;;8.70;7.80;;;;;;;6.43;77.37;95880.34;5013954;28;20203;-82
2021/11/12 10:08:17;;;;;;;8.67;7.63;;;;;;;6.47;76.91;95872.25;5013929;28;20199;-81
2021/11/12 10:10:46;;;;;;;8.57;7.77;;;;;;;6.47;77.24;95858.66;5014481;28;20729;-81
2021/11/12 10:13:21;;;;;;;9.10;7.60;;;;;;;6.62;76.50;95862.31;5014465;28;20825;-79
2021/11/12 10:15:52;;;;;;;8.93;7.87;;;;;;;6.44;77.46;95866.63;5014923;28;20256;-81
2021/11/12 10:18:19;;;;;;;8.40;7.57;;;;;;;6.59;76.79;95865.97;5013763;28;20711;-81
2021/11/12 10:20:59;;;;;;;9.63;8.40;;;;;;;6.51;77.02;95855.69;5014044;28;20203;-81
2021/11/12 10:23:35;;;;;;;9.03;8.13;;;;;;;6.43;77.22;95850.47;5014070;28;20202;-81
2021/11/12 10:26:06;;;;;;;9.50;8.50;;;;;;;6.51;77.08;95844.63;5014252;28;20831;-82
2021/11/12 10:28:38;;;;;;;9.17;8.27;;;;;;;6.62;77.12;95836.75;5013725;28;20242;-81
2021/11/12 10:31:16;;;;;;;10.77;8.50;;;;;;;6.50;76.65;95831.03;5014657;28;20225;-81
2021/11/12 10:33:43;;;;;;;9.50;8.13;;;;;;;6.51;77.02;95829.28;5014221;28;20287;-81
2021/11/12 10:36:12;;;;;;;8.87;8.07;;;;;;;6.51;76.95;95829.28;5013470;28;20213;-82
2021/11/12 10:38:41;;;;;;;8.77;7.70;;;;;;;6.51;77.12;95826.72;5014185;28;20250;-81
2021/11/12 10:41:20;;;;;;;12.77;8.10;;;;;;;6.69;77.45;95827.53;5014588;28;20209;-81
2021/11/12 10:43:47;;;;;;;8.93;8.00;;;;;;;6.89;76.73;95823.88;5013696;28;20205;-81
2021/11/12 10:46:14;;;;;;;9.80;8.00;;;;;;;7.01;76.58;95828.75;5013481;28;20231;-81
2021/11/12 10:48:40;;;;;;;8.70;7.83;;;;;;;7.04;75.96;95820.78;5013586;28;20230;-81
2021/11/12 10:51:20;;;;;;;9.80;8.17;;;;;;;6.85;76.23;95824.31;5013745;28;20202;-81
2021/11/12 10:53:52;;;;;;;9.80;8.80;;;;;;;6.96;76.19;95811.28;5013292;28;20245;-81
2021/11/12 10:56:20;;;;;;;9.97;8.80;;;;;;;7.12;76.11;95808.81;5013441;28;20238;-81
2021/11/12 10:59:01;;;;;;;10.70;8.30;;;;;;;7.08;76.12;95804.97;5013642;28;20226;-81
2021/11/12 11:01:36;;;;;;;9.10;8.30;;;;;;;7.24;76.04;95814.53;5013930;28;20209;-81
2021/11/12 11:04:17;;;;;;;9.10;8.20;;;;;;;7.37;75.61;95798.75;5013412;28;20209;-81
2021/11/12 11:06:45;;;;;;;9.10;8.20;;;;;;;7.48;75.35;95793.38;5013598;28;20613;-81
2021/11/12 11:09:12;;;;;;;8.90;8.10;;;;;;;7.44;75.13;95798.00;5013362;28;20229;-81
2021/11/12 11:11:40;;;;;;;10.00;8.43;;;;;;;7.51;74.92;95795.63;5013800;28;20671;-81
2021/11/12 11:14:27;;;;;;;9.17;7.73;;;;;;;7.60;74.50;95794.72;5013451;28;20257;-81
2021/11/12 11:16:54;;;;;;;9.53;8.63;;;;;;;7.55;74.46;95790.03;5013253;28;20438;-82
2021/11/12 11:19:33;;;;;;;12.10;8.60;;;;;;;7.43;74.90;95791.28;5013703;28;20230;-81
2021/11/12 11:22:03;;;;;;;12.03;9.53;;;;;;;7.27;74.63;95789.44;5013686;28;20249;-82
2021/11/12 11:24:34;;;;;;;9.90;8.77;;;;;;;7.03;75.34;95781.56;5013142;28;20203;-81
2021/11/12 11:27:03;;;;;;;14.00;9.13;;;;;;;7.03;76.33;95785.91;5013384;28;20230;-81
2021/11/12 11:29:30;;;;;;;19.27;9.97;;;;;;;7.08;76.94;95784.50;5013320;28;20245;-81
2021/11/12 11:31:58;;;;;;;9.40;8.50;;;;;;;7.30;76.78;95783.19;5013220;28;20351;-81
2021/11/12 11:34:25;;;;;;;58.67;43.53;;;;;;;7.40;79.60;95785.66;5013009;28;20323;-81
2021/11/12 11:36:56;;;;;;;24.00;21.20;;;;;;;7.45;79.17;95784.25;5013262;28;20206;-81
2021/11/12 11:39:24;;;;;;;10.70;9.63;;;;;;;7.49;77.07;95782.19;5012997;28;20235;-81
2021/11/12 11:41:51;;;;;;;10.63;9.63;;;;;;;7.44;76.05;95774.94;5013312;28;20206;-81
2021/11/12 11:44:19;;;;;;;9.70;8.70;;;;;;;7.26;76.24;95772.44;5014035;28;20213;-81
2021/11/12 11:46:49;;;;;;;13.20;9.03;;;;;;;7.44;76.17;95766.47;5013035;28;20202;-81
2021/11/12 11:49:18;;;;;;;9.50;8.60;;;;;;;7.36;75.96;95769.78;5012873;28;20613;-81
2021/11/12 11:51:50;;;;;;;10.60;9.60;;;;;;;7.26;76.90;95767.31;5012529;28;20245;-81
2021/11/12 11:54:18;;;;;;;10.30;9.30;;;;;;;7.39;76.51;95761.78;5012832;28;20202;-81
2021/11/12 11:56:48;;;;;;;9.33;8.43;;;;;;;7.53;76.01;95750.97;5013107;28;20281;-81
2021/11/12 11:59:19;;;;;;;8.87;8.07;;;;;;;7.54;75.25;95750.00;5012434;28;20237;-81
2021/11/12 12:01:48;;;;;;;9.20;8.30;;;;;;;7.37;76.02;95750.09;5012305;28;20206;-81
2021/11/12 12:04:34;;;;;;;9.87;8.87;;;;;;;7.43;75.89;95755.41;5012372;28;20207;-81
2021/11/12 12:07:20;;;;;;;9.30;8.43;;;;;;;7.36;75.69;95756.97;5012755;28;20245;-81
2021/11/12 12:09:52;;;;;;;9.90;8.90;;;;;;;7.32;76.15;95768.47;5012486;28;20880;-81
2021/11/12 12:12:49;;;;;;;9.30;8.33;;;;;;;7.25;76.89;95760.59;5013229;28;20226;-81
2021/11/12 12:15:42;;;;;;;9.60;8.67;;;;;;;7.38;76.85;95760.19;5014723;28;20253;-81
2021/11/12 12:18:17;;;;;;;9.50;8.60;;;;;;;7.26;76.94;95754.53;5016078;28;20224;-81
2021/11/12 12:21:31;;;;;;;9.13;8.23;;;;;;;7.29;77.13;95750.88;5016465;28;20222;-81
2021/11/12 12:33:40;;;;;;;28.73;24.47;;;;;;;7.21;77.71;95738.81;5016559;28;20338;-81
2021/11/12 13:20:17;;;;;;;9.87;8.87;;;;;;;7.39;78.03;95714.88;5014739;28;20737;-84
2021/11/12 13:22:49;;;;;;;9.83;8.83;;;;;;;7.42;78.01;95714.56;5014894;28;20207;-84
2021/11/12 13:25:29;;;;;;;10.60;9.23;;;;;;;7.32;78.42;95719.00;5014905;28;20207;-81
2021/11/12 13:28:17;;;;;;;11.00;9.90;;;;;;;7.06;80.11;95714.72;5014719;28;20206;-81
2021/11/12 13:30:45;;;;;;;11.00;9.90;;;;;;;6.91;80.91;95701.69;5014896;28;20276;-81
2021/11/12 13:33:31;;;;;;;11.40;9.73;;;;;;;6.91;81.38;95711.91;5014605;28;20199;-81
2021/11/12 13:36:01;;;;;;;10.40;9.33;;;;;;;6.85;81.44;95707.41;5014744;28;20210;-81
2021/11/12 13:38:35;;;;;;;11.83;9.50;;;;;;;6.98;81.19;95701.06;5014695;28;20219;-81
2021/11/12 13:41:04;;;;;;;12.30;9.67;;;;;;;7.07;81.07;95705.28;5015284;28;20221;-81
2021/11/12 13:43:33;;;;;;;14.03;12.60;;;;;;;7.10;80.78;95699.88;5014653;28;20209;-81
2021/11/12 13:46:01;;;;;;;19.00;16.30;;;;;;;6.88;82.00;95706.31;5014221;28;20202;-82
2021/11/12 13:48:28;;;;;;;12.77;11.13;;;;;;;6.55;84.36;95700.94;5014057;28;20227;-81
2021/11/12 13:50:56;;;;;;;12.23;10.40;;;;;;;6.74;83.19;95694.84;5014720;28;20206;-81
2021/11/12 13:53:27;;;;;;;11.27;9.73;;;;;;;6.87;82.66;95694.44;5014209;28;20231;-81
2021/11/12 13:55:54;;;;;;;11.40;10.13;;;;;;;6.98;81.67;95690.81;5014363;28;20198;-81
2021/11/12 13:58:23;;;;;;;12.90;10.13;;;;;;;6.98;82.01;95696.75;5014073;28;20223;-81
2021/11/12 14:00:51;;;;;;;11.90;9.93;;;;;;;6.96;83.07;95697.84;5014337;28;20630;-81
2021/11/12 14:03:33;;;;;;;11.47;10.30;;;;;;;7.00;82.41;95696.59;5014035;28;20202;-81
2021/11/12 14:06:04;;;;;;;11.47;10.07;;;;;;;7.06;82.86;95703.69;5015029;28;20288;-81
2021/11/12 14:08:36;;;;;;;10.97;9.87;;;;;;;7.05;82.87;95699.50;5013724;28;20908;-81
2021/11/12 14:11:06;;;;;;;12.63;10.20;;;;;;;7.00;82.62;95688.91;5014222;28;20685;-81
2021/11/12 14:13:37;;;;;;;11.27;9.90;;;;;;;7.06;82.32;95688.31;5013729;28;20205;-81
2021/11/12 14:16:10;;;;;;;10.90;9.80;;;;;;;6.94;82.69;95678.31;5014457;28;20253;-81
2021/11/12 14:18:45;;;;;;;12.27;10.67;;;;;;;6.94;83.02;95680.06;5014015;28;20226;-81
2021/11/12 14:21:22;;;;;;;15.43;11.57;;;;;;;6.66;84.73;95679.44;5014572;28;20252;-81
2021/11/12 14:23:56;;;;;;;13.80;10.20;;;;;;;6.73;84.41;95683.03;5013892;28;20210;-81
2021/11/12 14:26:28;;;;;;;15.07;10.70;;;;;;;6.85;83.71;95688.69;5013338;28;20203;-81
2021/11/12 14:28:58;;;;;;;12.23;11.00;;;;;;;6.82;83.83;95679.53;5013502;28;20254;-81
2021/11/12 14:31:46;;;;;;;12.63;11.10;;;;;;;6.75;84.03;95682.84;5013488;28;20234;-81
2021/11/12 14:34:25;;;;;;;12.47;11.17;;;;;;;6.68;85.28;95689.53;5013107;28;20407;-81
2021/11/12 14:36:55;;;;;;;14.97;11.23;;;;;;;6.80;84.40;95676.31;5013396;28;20289;-81
2021/11/12 14:39:49;;;;;;;11.17;9.90;;;;;;;6.91;83.85;95665.06;5013586;28;20233;-81
2021/11/12 14:45:11;;;;;;;11.80;10.60;;;;;;;6.76;85.04;95674.22;5013371;28;20206;-81
2021/11/12 14:47:57;;;;;;;13.30;10.90;;;;;;;6.74;85.13;95668.44;5013265;28;20249;-81
2021/11/12 14:50:44;;;;;;;14.23;11.07;;;;;;;6.78;85.10;95668.00;5013068;28;20206;-81
2021/11/12 14:53:24;;;;;;;12.77;11.10;;;;;;;6.86;84.36;95664.69;4992874;28;20768;-81
2021/11/12 14:55:58;;;;;;;63.10;49.27;;;;;;;6.94;83.67;95668.09;4998828;28;20289;-81
2021/11/12 14:58:25;;;;;;;31.40;25.00;;;;;;;7.05;83.03;95666.22;5012973;28;20639;-81
2021/11/12 15:00:52;;;;;;;13.43;12.00;;;;;;;6.93;83.89;95658.00;5012939;28;20827;-81
2021/11/12 15:03:19;;;;;;;12.97;11.37;;;;;;;6.82;85.05;95656.50;5013297;28;20282;-81
2021/11/12 15:05:46;;;;;;;17.03;11.57;;;;;;;6.83;84.65;95658.13;5013283;28;20211;-81
2021/11/12 15:08:17;;;;;;;13.23;11.77;;;;;;;6.86;85.08;95659.56;5012994;28;20215;-81
2021/11/12 15:10:44;;;;;;;13.87;10.97;;;;;;;6.97;84.27;95666.97;5011492;28;20199;-81
2021/11/12 15:13:13;;;;;;;17.63;11.43;;;;;;;6.87;86.86;95661.19;5012878;28;20207;-81
2021/11/12 15:15:40;;;;;;;16.07;11.03;;;;;;;6.87;85.54;95656.88;5013169;28;20199;-81